If you wish to contribute or participate in the discussions about articles you are invited to join SKYbrary as a registered user

 Actions

Nevers-Fourchambault Airport

From SKYbrary Wiki

LFQG
Airport
ICAO: LFQG – IATA: NVS
Summary
Name Nevers-Fourchambault Airport
Region Europe
Territory France FR.gif
Location , Bourgogne
Serving Nevers
Elevation 183.49 m
602 ft
602 ft183.49 m
Type medium airport
Coordinates 47° 0' 9.45" N, 3° 6' 48.00" E
Runways
Designator Length Width Surface ROPS
12/30 1630 m5,347.769 ft
30 m98.425 ft
ASP /


METAR
Observation LFQG 100930Z AUTO VRB01KT 0250 FG VV/// 00/M00 Q1030
Station Nevers
Date/Time 10 December 2019 09:30:00
Wind direction °
Wind speed 01 kts
Lowest cloud amount n/a
Temperature 0°C
Dew point
Humidity 100%
QNH 1030 hPa
Weather condition n/a